sensor_id;sensor_type;location;lat;lon;timestamp;P1;durP1;ratioP1;P2;durP2;ratioP2
63945;SDS011;50122;56.330;43.838;2023-08-01T00:00:13;11.52;;;7.38;;
63945;SDS011;50122;56.330;43.838;2023-08-01T00:02:40;10.82;;;7.25;;
63945;SDS011;50122;56.330;43.838;2023-08-01T00:05:08;10.80;;;7.38;;
63945;SDS011;50122;56.330;43.838;2023-08-01T00:07:36;13.05;;;7.43;;
63945;SDS011;50122;56.330;43.838;2023-08-01T00:10:03;12.45;;;8.27;;
63945;SDS011;50122;56.330;43.838;2023-08-01T00:12:31;10.88;;;7.40;;
63945;SDS011;50122;56.330;43.838;2023-08-01T00:14:57;12.73;;;7.35;;
63945;SDS011;50122;56.330;43.838;2023-08-01T00:17:25;10.45;;;7.60;;
63945;SDS011;50122;56.330;43.838;2023-08-01T00:19:52;12.70;;;7.53;;
63945;SDS011;50122;56.330;43.838;2023-08-01T00:22:18;13.30;;;7.47;;
63945;SDS011;50122;56.330;43.838;2023-08-01T00:24:47;10.43;;;6.85;;
63945;SDS011;50122;56.330;43.838;2023-08-01T00:27:16;11.40;;;6.82;;
63945;SDS011;50122;56.330;43.838;2023-08-01T00:29:43;13.68;;;7.32;;
63945;SDS011;50122;56.330;43.838;2023-08-01T00:32:13;13.13;;;7.13;;
63945;SDS011;50122;56.330;43.838;2023-08-01T00:34:40;10.90;;;7.20;;
63945;SDS011;50122;56.330;43.838;2023-08-01T00:37:07;10.35;;;6.13;;
63945;SDS011;50122;56.330;43.838;2023-08-01T00:39:34;8.93;;;6.60;;
63945;SDS011;50122;56.330;43.838;2023-08-01T00:42:00;10.02;;;6.80;;
63945;SDS011;50122;56.330;43.838;2023-08-01T00:44:27;10.77;;;7.20;;
63945;SDS011;50122;56.330;43.838;2023-08-01T00:46:54;11.88;;;7.30;;
63945;SDS011;50122;56.330;43.838;2023-08-01T00:49:21;14.85;;;7.45;;
63945;SDS011;50122;56.330;43.838;2023-08-01T00:51:48;11.88;;;7.30;;
63945;SDS011;50122;56.330;43.838;2023-08-01T00:54:15;12.70;;;7.70;;
63945;SDS011;50122;56.330;43.838;2023-08-01T00:56:42;11.02;;;7.40;;
63945;SDS011;50122;56.330;43.838;2023-08-01T00:59:11;11.23;;;8.00;;
63945;SDS011;50122;56.330;43.838;2023-08-01T01:01:39;10.70;;;7.60;;
63945;SDS011;50122;56.330;43.838;2023-08-01T01:04:05;8.77;;;7.45;;
63945;SDS011;50122;56.330;43.838;2023-08-01T01:09:15;14.02;;;9.02;;
63945;SDS011;50122;56.330;43.838;2023-08-01T01:11:43;11.60;;;9.38;;
63945;SDS011;50122;56.330;43.838;2023-08-01T01:14:14;11.75;;;9.00;;
63945;SDS011;50122;56.330;43.838;2023-08-01T01:16:40;14.15;;;9.88;;
63945;SDS011;50122;56.330;43.838;2023-08-01T01:19:08;12.07;;;9.45;;
63945;SDS011;50122;56.330;43.838;2023-08-01T01:21:35;13.00;;;9.02;;
63945;SDS011;50122;56.330;43.838;2023-08-01T01:24:22;11.57;;;8.07;;
63945;SDS011;50122;56.330;43.838;2023-08-01T01:26:51;12.65;;;8.40;;
63945;SDS011;50122;56.330;43.838;2023-08-01T01:29:21;11.95;;;8.10;;
63945;SDS011;50122;56.330;43.838;2023-08-01T01:31:49;11.75;;;8.05;;
63945;SDS011;50122;56.330;43.838;2023-08-01T01:34:17;9.85;;;7.95;;
63945;SDS011;50122;56.330;43.838;2023-08-01T01:36:44;12.93;;;8.05;;
63945;SDS011;50122;56.330;43.838;2023-08-01T01:39:11;14.00;;;7.53;;
63945;SDS011;50122;56.330;43.838;2023-08-01T01:41:38;11.50;;;7.55;;
63945;SDS011;50122;56.330;43.838;2023-08-01T01:44:04;11.77;;;7.60;;
63945;SDS011;50122;56.330;43.838;2023-08-01T01:46:31;13.27;;;7.18;;
63945;SDS011;50122;56.330;43.838;2023-08-01T01:48:58;11.60;;;6.88;;
63945;SDS011;50122;56.330;43.838;2023-08-01T01:51:26;9.27;;;6.97;;
63945;SDS011;50122;56.330;43.838;2023-08-01T01:53:53;11.75;;;6.90;;
63945;SDS011;50122;56.330;43.838;2023-08-01T01:56:19;10.00;;;7.40;;
63945;SDS011;50122;56.330;43.838;2023-08-01T01:58:46;10.80;;;7.63;;
63945;SDS011;50122;56.330;43.838;2023-08-01T02:01:13;11.82;;;7.18;;
63945;SDS011;50122;56.330;43.838;2023-08-01T02:03:40;13.32;;;10.85;;
63945;SDS011;50122;56.330;43.838;2023-08-01T02:06:07;14.15;;;9.82;;
63945;SDS011;50122;56.330;43.838;2023-08-01T02:08:34;13.88;;;11.15;;
63945;SDS011;50122;56.330;43.838;2023-08-01T02:11:00;16.25;;;14.10;;
63945;SDS011;50122;56.330;43.838;2023-08-01T02:13:27;19.00;;;14.07;;
63945;SDS011;50122;56.330;43.838;2023-08-01T02:15:56;14.25;;;12.55;;
63945;SDS011;50122;56.330;43.838;2023-08-01T02:18:24;17.63;;;13.63;;
63945;SDS011;50122;56.330;43.838;2023-08-01T02:20:51;14.52;;;11.77;;
63945;SDS011;50122;56.330;43.838;2023-08-01T02:23:18;15.30;;;11.32;;
63945;SDS011;50122;56.330;43.838;2023-08-01T02:25:45;13.10;;;9.45;;
63945;SDS011;50122;56.330;43.838;2023-08-01T02:28:12;13.07;;;9.25;;
63945;SDS011;50122;56.330;43.838;2023-08-01T02:30:39;11.98;;;8.15;;
63945;SDS011;50122;56.330;43.838;2023-08-01T02:33:05;11.43;;;8.43;;
63945;SDS011;50122;56.330;43.838;2023-08-01T02:35:32;11.57;;;7.85;;
63945;SDS011;50122;56.330;43.838;2023-08-01T02:37:59;10.10;;;7.10;;
63945;SDS011;50122;56.330;43.838;2023-08-01T02:40:26;10.25;;;5.90;;
63945;SDS011;50122;56.330;43.838;2023-08-01T02:42:53;8.50;;;6.30;;
63945;SDS011;50122;56.330;43.838;2023-08-01T02:45:20;8.10;;;5.95;;
63945;SDS011;50122;56.330;43.838;2023-08-01T02:47:48;8.43;;;6.10;;
63945;SDS011;50122;56.330;43.838;2023-08-01T02:50:14;8.32;;;5.93;;
63945;SDS011;50122;56.330;43.838;2023-08-01T02:52:41;8.20;;;5.97;;
63945;SDS011;50122;56.330;43.838;2023-08-01T02:55:08;8.07;;;5.78;;
63945;SDS011;50122;56.330;43.838;2023-08-01T02:57:35;8.93;;;5.88;;
63945;SDS011;50122;56.330;43.838;2023-08-01T03:00:02;8.68;;;5.35;;
63945;SDS011;50122;56.330;43.838;2023-08-01T03:02:32;9.43;;;6.10;;
63945;SDS011;50122;56.330;43.838;2023-08-01T03:04:59;8.43;;;5.45;;
63945;SDS011;50122;56.330;43.838;2023-08-01T03:07:26;7.50;;;5.30;;
63945;SDS011;50122;56.330;43.838;2023-08-01T03:09:52;6.80;;;4.97;;
63945;SDS011;50122;56.330;43.838;2023-08-01T03:12:19;6.30;;;4.50;;
63945;SDS011;50122;56.330;43.838;2023-08-01T03:14:46;6.75;;;4.65;;
63945;SDS011;50122;56.330;43.838;2023-08-01T03:17:14;7.00;;;4.93;;
63945;SDS011;50122;56.330;43.838;2023-08-01T03:19:40;7.68;;;4.63;;
63945;SDS011;50122;56.330;43.838;2023-08-01T03:22:07;7.00;;;3.92;;
63945;SDS011;50122;56.330;43.838;2023-08-01T03:24:34;7.43;;;4.18;;
63945;SDS011;50122;56.330;43.838;2023-08-01T03:27:01;7.47;;;4.13;;
63945;SDS011;50122;56.330;43.838;2023-08-01T03:29:28;5.90;;;3.95;;
63945;SDS011;50122;56.330;43.838;2023-08-01T03:31:55;6.97;;;4.00;;
63945;SDS011;50122;56.330;43.838;2023-08-01T03:34:21;9.82;;;4.25;;
63945;SDS011;50122;56.330;43.838;2023-08-01T03:36:48;9.10;;;4.43;;
63945;SDS011;50122;56.330;43.838;2023-08-01T03:39:16;7.25;;;4.10;;
63945;SDS011;50122;56.330;43.838;2023-08-01T03:41:43;6.53;;;3.90;;
63945;SDS011;50122;56.330;43.838;2023-08-01T03:44:10;5.57;;;3.83;;
63945;SDS011;50122;56.330;43.838;2023-08-01T03:46:37;6.35;;;4.13;;
63945;SDS011;50122;56.330;43.838;2023-08-01T03:49:04;6.75;;;3.70;;
63945;SDS011;50122;56.330;43.838;2023-08-01T03:51:31;9.27;;;4.00;;
63945;SDS011;50122;56.330;43.838;2023-08-01T03:53:58;6.60;;;3.90;;
63945;SDS011;50122;56.330;43.838;2023-08-01T03:56:38;5.63;;;3.70;;
63945;SDS011;50122;56.330;43.838;2023-08-01T03:59:10;6.60;;;3.90;;
63945;SDS011;50122;56.330;43.838;2023-08-01T04:01:40;7.65;;;4.13;;
63945;SDS011;50122;56.330;43.838;2023-08-01T04:04:08;6.55;;;3.40;;
63945;SDS011;50122;56.330;43.838;2023-08-01T04:06:35;7.85;;;3.75;;
63945;SDS011;50122;56.330;43.838;2023-08-01T04:09:02;6.57;;;3.83;;
63945;SDS011;50122;56.330;43.838;2023-08-01T04:11:29;5.15;;;3.40;;
63945;SDS011;50122;56.330;43.838;2023-08-01T04:13:56;6.75;;;3.80;;
63945;SDS011;50122;56.330;43.838;2023-08-01T04:16:23;5.00;;;3.00;;
63945;SDS011;50122;56.330;43.838;2023-08-01T04:18:50;5.47;;;3.60;;
63945;SDS011;50122;56.330;43.838;2023-08-01T17:45:54;130.73;;;34.42;;
63945;SDS011;50122;56.330;43.838;2023-08-01T17:48:23;159.63;;;40.40;;
63945;SDS011;50122;56.330;43.838;2023-08-01T17:50:57;116.05;;;31.60;;
63945;SDS011;50122;56.330;43.838;2023-08-01T17:53:25;130.52;;;37.25;;
63945;SDS011;50122;56.330;43.838;2023-08-01T17:55:54;152.50;;;40.58;;
63945;SDS011;50122;56.330;43.838;2023-08-01T17:58:22;177.10;;;45.80;;
63945;SDS011;50122;56.330;43.838;2023-08-01T18:00:57;174.77;;;44.17;;
63945;SDS011;50122;56.330;43.838;2023-08-01T18:03:29;169.80;;;44.80;;
63945;SDS011;50122;56.330;43.838;2023-08-01T18:06:03;163.55;;;45.15;;
63945;SDS011;50122;56.330;43.838;2023-08-01T18:08:36;138.15;;;39.72;;
63945;SDS011;50122;56.330;43.838;2023-08-01T18:11:18;138.68;;;41.13;;
63945;SDS011;50122;56.330;43.838;2023-08-01T18:13:46;145.02;;;39.35;;
63945;SDS011;50122;56.330;43.838;2023-08-01T18:16:20;141.35;;;40.10;;
63945;SDS011;50122;56.330;43.838;2023-08-01T18:18:48;146.45;;;38.92;;
63945;SDS011;50122;56.330;43.838;2023-08-01T18:21:16;116.07;;;34.65;;
63945;SDS011;50122;56.330;43.838;2023-08-01T18:23:43;113.82;;;32.92;;
63945;SDS011;50122;56.330;43.838;2023-08-01T18:26:15;90.60;;;29.20;;
63945;SDS011;50122;56.330;43.838;2023-08-01T18:28:49;117.40;;;30.20;;
63945;SDS011;50122;56.330;43.838;2023-08-01T18:34:19;84.85;;;26.52;;
63945;SDS011;50122;56.330;43.838;2023-08-01T18:37:05;79.88;;;25.92;;
63945;SDS011;50122;56.330;43.838;2023-08-01T18:39:33;83.93;;;23.67;;
63945;SDS011;50122;56.330;43.838;2023-08-01T18:42:04;71.07;;;21.05;;
63945;SDS011;50122;56.330;43.838;2023-08-01T18:44:31;61.55;;;18.77;;
63945;SDS011;50122;56.330;43.838;2023-08-01T18:47:01;70.32;;;21.58;;
63945;SDS011;50122;56.330;43.838;2023-08-01T18:49:32;59.13;;;20.05;;
63945;SDS011;50122;56.330;43.838;2023-08-01T18:52:16;55.92;;;18.42;;
63945;SDS011;50122;56.330;43.838;2023-08-01T18:54:49;61.88;;;19.58;;
63945;SDS011;50122;56.330;43.838;2023-08-01T18:57:18;58.85;;;17.50;;
63945;SDS011;50122;56.330;43.838;2023-08-01T18:59:45;48.75;;;17.80;;
63945;SDS011;50122;56.330;43.838;2023-08-01T19:02:11;45.72;;;16.83;;
63945;SDS011;50122;56.330;43.838;2023-08-01T19:04:38;48.70;;;16.67;;
63945;SDS011;50122;56.330;43.838;2023-08-01T19:07:07;44.10;;;15.52;;
63945;SDS011;50122;56.330;43.838;2023-08-01T19:09:37;44.20;;;12.93;;
63945;SDS011;50122;56.330;43.838;2023-08-01T19:12:04;33.15;;;12.82;;
63945;SDS011;50122;56.330;43.838;2023-08-01T19:14:32;31.55;;;14.15;;
63945;SDS011;50122;56.330;43.838;2023-08-01T19:16:59;30.52;;;12.10;;
63945;SDS011;50122;56.330;43.838;2023-08-01T19:19:28;29.27;;;12.50;;
63945;SDS011;50122;56.330;43.838;2023-08-01T19:21:55;44.38;;;12.98;;
63945;SDS011;50122;56.330;43.838;2023-08-01T19:24:21;34.40;;;12.48;;
63945;SDS011;50122;56.330;43.838;2023-08-01T19:26:51;35.60;;;12.45;;
63945;SDS011;50122;56.330;43.838;2023-08-01T19:29:18;39.88;;;14.88;;
63945;SDS011;50122;56.330;43.838;2023-08-01T19:31:45;55.95;;;16.73;;
63945;SDS011;50122;56.330;43.838;2023-08-01T19:36:50;48.88;;;17.55;;
63945;SDS011;50122;56.330;43.838;2023-08-01T19:39:17;64.15;;;19.20;;
63945;SDS011;50122;56.330;43.838;2023-08-01T19:41:52;51.65;;;17.73;;
63945;SDS011;50122;56.330;43.838;2023-08-01T19:44:37;55.67;;;17.83;;
63945;SDS011;50122;56.330;43.838;2023-08-01T19:47:06;55.75;;;18.67;;
63945;SDS011;50122;56.330;43.838;2023-08-01T19:52:26;47.17;;;17.13;;
63945;SDS011;50122;56.330;43.838;2023-08-01T19:54:53;93.97;;;20.70;;
63945;SDS011;50122;56.330;43.838;2023-08-01T19:57:20;94.18;;;19.60;;
63945;SDS011;50122;56.330;43.838;2023-08-01T19:59:48;74.55;;;20.73;;
63945;SDS011;50122;56.330;43.838;2023-08-01T20:02:15;63.58;;;19.45;;
63945;SDS011;50122;56.330;43.838;2023-08-01T20:04:42;66.00;;;19.38;;
63945;SDS011;50122;56.330;43.838;2023-08-01T20:07:09;58.80;;;20.27;;
63945;SDS011;50122;56.330;43.838;2023-08-01T20:09:46;62.20;;;21.10;;
63945;SDS011;50122;56.330;43.838;2023-08-01T20:12:16;64.32;;;20.20;;
63945;SDS011;50122;56.330;43.838;2023-08-01T20:14:46;68.35;;;21.13;;
63945;SDS011;50122;56.330;43.838;2023-08-01T20:17:16;66.93;;;20.52;;
63945;SDS011;50122;56.330;43.838;2023-08-01T20:20:09;51.37;;;18.73;;
63945;SDS011;50122;56.330;43.838;2023-08-01T20:22:36;47.00;;;18.52;;
63945;SDS011;50122;56.330;43.838;2023-08-01T20:25:04;53.53;;;18.08;;
63945;SDS011;50122;56.330;43.838;2023-08-01T20:27:32;49.75;;;18.92;;
63945;SDS011;50122;56.330;43.838;2023-08-01T20:29:59;41.28;;;18.27;;
63945;SDS011;50122;56.330;43.838;2023-08-01T20:32:28;50.75;;;20.80;;
63945;SDS011;50122;56.330;43.838;2023-08-01T20:34:56;46.65;;;19.77;;
63945;SDS011;50122;56.330;43.838;2023-08-01T20:37:23;47.28;;;18.98;;
63945;SDS011;50122;56.330;43.838;2023-08-01T20:39:50;44.90;;;18.50;;
63945;SDS011;50122;56.330;43.838;2023-08-01T20:42:17;43.60;;;18.48;;
63945;SDS011;50122;56.330;43.838;2023-08-01T20:44:44;41.40;;;18.45;;
63945;SDS011;50122;56.330;43.838;2023-08-01T20:47:12;37.75;;;16.73;;
63945;SDS011;50122;56.330;43.838;2023-08-01T20:49:41;49.75;;;18.23;;
63945;SDS011;50122;56.330;43.838;2023-08-01T20:52:08;77.47;;;26.88;;
63945;SDS011;50122;56.330;43.838;2023-08-01T20:54:35;96.57;;;29.70;;
63945;SDS011;50122;56.330;43.838;2023-08-01T20:57:02;52.28;;;20.40;;
63945;SDS011;50122;56.330;43.838;2023-08-01T20:59:31;55.58;;;19.92;;
63945;SDS011;50122;56.330;43.838;2023-08-01T21:01:59;49.30;;;19.15;;
63945;SDS011;50122;56.330;43.838;2023-08-01T21:04:29;59.35;;;21.30;;
63945;SDS011;50122;56.330;43.838;2023-08-01T21:06:56;53.80;;;20.70;;
63945;SDS011;50122;56.330;43.838;2023-08-01T21:09:23;65.35;;;23.02;;
63945;SDS011;50122;56.330;43.838;2023-08-01T21:11:49;56.35;;;21.98;;
63945;SDS011;50122;56.330;43.838;2023-08-01T21:14:16;64.80;;;23.08;;
63945;SDS011;50122;56.330;43.838;2023-08-01T21:16:45;58.20;;;21.20;;
63945;SDS011;50122;56.330;43.838;2023-08-01T21:19:15;59.28;;;20.52;;
63945;SDS011;50122;56.330;43.838;2023-08-01T21:21:47;55.40;;;22.20;;
63945;SDS011;50122;56.330;43.838;2023-08-01T21:24:14;59.08;;;20.77;;
63945;SDS011;50122;56.330;43.838;2023-08-01T21:26:41;51.20;;;20.23;;
63945;SDS011;50122;56.330;43.838;2023-08-01T21:29:10;54.10;;;20.50;;
63945;SDS011;50122;56.330;43.838;2023-08-01T21:31:36;52.50;;;20.25;;
63945;SDS011;50122;56.330;43.838;2023-08-01T21:34:03;59.05;;;21.70;;
63945;SDS011;50122;56.330;43.838;2023-08-01T21:36:31;62.83;;;23.13;;
63945;SDS011;50122;56.330;43.838;2023-08-01T21:38:58;66.95;;;22.70;;
63945;SDS011;50122;56.330;43.838;2023-08-01T21:41:24;58.38;;;21.88;;
63945;SDS011;50122;56.330;43.838;2023-08-01T21:43:51;56.92;;;21.20;;
63945;SDS011;50122;56.330;43.838;2023-08-01T21:46:27;59.70;;;22.02;;
63945;SDS011;50122;56.330;43.838;2023-08-01T21:48:55;54.00;;;21.27;;
63945;SDS011;50122;56.330;43.838;2023-08-01T21:51:21;52.58;;;23.15;;
63945;SDS011;50122;56.330;43.838;2023-08-01T21:53:48;60.53;;;20.98;;
63945;SDS011;50122;56.330;43.838;2023-08-01T21:56:15;55.45;;;20.88;;
63945;SDS011;50122;56.330;43.838;2023-08-01T21:58:42;55.70;;;21.40;;
63945;SDS011;50122;56.330;43.838;2023-08-01T22:01:11;53.72;;;20.67;;
63945;SDS011;50122;56.330;43.838;2023-08-01T22:03:38;54.05;;;20.10;;
63945;SDS011;50122;56.330;43.838;2023-08-01T22:06:05;53.90;;;21.33;;
63945;SDS011;50122;56.330;43.838;2023-08-01T22:08:32;50.80;;;20.52;;
63945;SDS011;50122;56.330;43.838;2023-08-01T22:10:59;54.78;;;20.45;;
63945;SDS011;50122;56.330;43.838;2023-08-01T22:13:31;50.78;;;19.38;;
63945;SDS011;50122;56.330;43.838;2023-08-01T22:16:02;45.80;;;18.70;;
63945;SDS011;50122;56.330;43.838;2023-08-01T22:18:29;48.75;;;18.88;;
63945;SDS011;50122;56.330;43.838;2023-08-01T22:20:56;45.83;;;19.20;;
63945;SDS011;50122;56.330;43.838;2023-08-01T22:23:23;41.30;;;17.77;;
63945;SDS011;50122;56.330;43.838;2023-08-01T22:25:53;44.15;;;16.58;;
63945;SDS011;50122;56.330;43.838;2023-08-01T22:28:20;42.92;;;16.48;;
63945;SDS011;50122;56.330;43.838;2023-08-01T22:30:47;43.10;;;18.15;;
63945;SDS011;50122;56.330;43.838;2023-08-01T22:33:16;40.40;;;17.13;;
63945;SDS011;50122;56.330;43.838;2023-08-01T22:35:43;41.50;;;16.73;;
63945;SDS011;50122;56.330;43.838;2023-08-01T22:38:10;39.45;;;17.08;;
63945;SDS011;50122;56.330;43.838;2023-08-01T22:40:36;40.95;;;17.17;;
63945;SDS011;50122;56.330;43.838;2023-08-01T22:43:04;32.40;;;15.05;;
63945;SDS011;50122;56.330;43.838;2023-08-01T22:45:30;34.28;;;15.10;;
63945;SDS011;50122;56.330;43.838;2023-08-01T22:47:58;30.98;;;14.55;;
63945;SDS011;50122;56.330;43.838;2023-08-01T22:50:25;33.28;;;13.60;;
63945;SDS011;50122;56.330;43.838;2023-08-01T22:52:55;25.20;;;12.45;;
63945;SDS011;50122;56.330;43.838;2023-08-01T22:55:22;22.48;;;12.18;;
63945;SDS011;50122;56.330;43.838;2023-08-01T22:57:48;27.10;;;12.95;;
63945;SDS011;50122;56.330;43.838;2023-08-01T23:00:17;25.65;;;11.88;;
63945;SDS011;50122;56.330;43.838;2023-08-01T23:02:44;27.02;;;12.68;;
63945;SDS011;50122;56.330;43.838;2023-08-01T23:05:11;42.72;;;12.65;;
63945;SDS011;50122;56.330;43.838;2023-08-01T23:07:38;38.42;;;13.63;;
63945;SDS011;50122;56.330;43.838;2023-08-01T23:10:06;35.42;;;12.25;;
63945;SDS011;50122;56.330;43.838;2023-08-01T23:12:33;26.98;;;13.15;;
63945;SDS011;50122;56.330;43.838;2023-08-01T23:15:03;25.88;;;12.48;;
63945;SDS011;50122;56.330;43.838;2023-08-01T23:17:31;26.70;;;13.02;;
63945;SDS011;50122;56.330;43.838;2023-08-01T23:19:59;25.95;;;11.35;;
63945;SDS011;50122;56.330;43.838;2023-08-01T23:22:27;26.98;;;11.98;;
63945;SDS011;50122;56.330;43.838;2023-08-01T23:24:53;22.63;;;11.48;;
63945;SDS011;50122;56.330;43.838;2023-08-01T23:27:20;24.75;;;11.52;;
63945;SDS011;50122;56.330;43.838;2023-08-01T23:29:51;22.77;;;11.52;;
63945;SDS011;50122;56.330;43.838;2023-08-01T23:32:19;26.58;;;11.95;;
63945;SDS011;50122;56.330;43.838;2023-08-01T23:34:47;28.00;;;12.25;;
63945;SDS011;50122;56.330;43.838;2023-08-01T23:37:14;27.55;;;12.13;;
63945;SDS011;50122;56.330;43.838;2023-08-01T23:39:40;26.05;;;12.07;;
63945;SDS011;50122;56.330;43.838;2023-08-01T23:42:07;27.40;;;12.32;;
63945;SDS011;50122;56.330;43.838;2023-08-01T23:44:35;28.80;;;13.07;;
63945;SDS011;50122;56.330;43.838;2023-08-01T23:47:05;31.38;;;12.95;;
63945;SDS011;50122;56.330;43.838;2023-08-01T23:49:32;32.10;;;16.20;;
63945;SDS011;50122;56.330;43.838;2023-08-01T23:52:01;33.78;;;16.38;;
63945;SDS011;50122;56.330;43.838;2023-08-01T23:54:29;29.75;;;14.95;;
63945;SDS011;50122;56.330;43.838;2023-08-01T23:56:56;31.27;;;14.48;;
63945;SDS011;50122;56.330;43.838;2023-08-01T23:59:24;31.63;;;14.65;;
